Mascot, Nebraska
Current Conditions -  °F | °C
As of 11:15 AM on Saturday 20 Dec 2014 (Local Time) from KHDE Reporting Station
Clear Clear  
Wind Chill: 30°   Ceiling: Unl
Heat Index: 34°   Visibility: 10mi
Dew Point: 28°   Wind: 5mph
Humidity: 78%   Direction: 220°SW
Pressure: 30.04"   Gusts: NA
Location:  40.2849°N, 99.6171°W
Report Text: KHDE 201715Z AUTO 22004KT 10SM CLR 01/M02 A3004 RMK AO2 T00121022
Loading
Personal Weather Stations






























Interactive Weather Map New forecast layout! Learn more

10-Day Weather Forecast

Advertisements
Track Severe Weather on mobile